createdAt,value
2018-09-16T00:00:11.548Z,10.1
2018-09-16T00:01:13.683Z,10.1
2018-09-16T00:02:16.008Z,10.1
2018-09-16T00:03:18.242Z,10.1
2018-09-16T00:04:20.353Z,10
2018-09-16T00:05:22.853Z,10
2018-09-16T00:06:24.938Z,10
2018-09-16T00:07:27.060Z,10
2018-09-16T00:08:29.155Z,10
2018-09-16T00:09:31.239Z,10
2018-09-16T00:10:33.343Z,10
2018-09-16T00:11:35.422Z,10.1
2018-09-16T00:12:37.526Z,10.1
2018-09-16T00:13:39.631Z,10.1
2018-09-16T00:14:41.771Z,10.1
2018-09-16T00:15:43.811Z,10.1
2018-09-16T00:16:45.906Z,10
2018-09-16T00:17:47.997Z,10.1
2018-09-16T00:18:50.094Z,10
2018-09-16T00:19:52.194Z,10.1
2018-09-16T00:20:54.607Z,10.1
2018-09-16T00:21:56.691Z,10
2018-09-16T00:22:59.186Z,10.1
2018-09-16T00:24:01.274Z,10.1
2018-09-16T00:25:03.953Z,10.1
2018-09-16T00:26:06.355Z,10.1
2018-09-16T00:27:08.434Z,10.1
2018-09-16T00:28:11.031Z,10.1
2018-09-16T00:29:13.394Z,10.2
2018-09-16T00:30:15.667Z,10.1
2018-09-16T00:31:17.747Z,10.1
2018-09-16T00:32:19.854Z,10.1
2018-09-16T00:33:21.944Z,10.1
2018-09-16T00:34:24.034Z,10.1
2018-09-16T00:35:26.138Z,10
2018-09-16T00:36:28.226Z,10.1
2018-09-16T00:37:30.611Z,10
2018-09-16T00:38:33.087Z,10
2018-09-16T00:39:35.499Z,10
2018-09-16T00:40:37.576Z,10.1
2018-09-16T00:41:39.667Z,10.1
2018-09-16T00:42:41.762Z,10
2018-09-16T00:43:43.841Z,10.1
2018-09-16T00:44:45.944Z,10
2018-09-16T00:45:48.034Z,10
2018-09-16T00:46:50.119Z,10
2018-09-16T00:47:52.210Z,10
2018-09-16T00:48:54.320Z,9.9
2018-09-16T00:49:56.406Z,10
2018-09-16T00:50:58.512Z,9.9
2018-09-16T00:52:00.608Z,9.9
2018-09-16T00:53:02.705Z,10
2018-09-16T00:54:04.788Z,9.9
2018-09-16T00:55:07.186Z,9.9
2018-09-16T00:56:09.273Z,9.9
2018-09-16T00:57:11.383Z,9.9
2018-09-16T00:58:13.681Z,9.9
2018-09-16T00:59:15.960Z,9.8
2018-09-16T01:00:18.586Z,9.8
2018-09-16T01:01:20.676Z,9.9
2018-09-16T01:02:23.058Z,9.8
2018-09-16T01:03:25.152Z,9.9
2018-09-16T01:04:27.933Z,9.9
2018-09-16T01:05:30.020Z,9.9
2018-09-16T01:06:32.116Z,9.9
2018-09-16T01:07:34.512Z,9.9
2018-09-16T01:08:36.586Z,9.9
2018-09-16T01:09:38.690Z,9.9
2018-09-16T01:10:40.782Z,10
2018-09-16T01:11:43.264Z,9.9
2018-09-16T01:12:45.349Z,9.8
2018-09-16T01:13:47.450Z,9.9
2018-09-16T01:14:49.546Z,9.9
2018-09-16T01:15:51.646Z,9.9
2018-09-16T01:16:54.020Z,9.9
2018-09-16T01:17:56.127Z,9.8
2018-09-16T01:18:58.221Z,9.8
2018-09-16T01:20:00.696Z,9.8
2018-09-16T01:21:02.794Z,9.8
2018-09-16T01:22:05.223Z,9.8
2018-09-16T01:23:08.202Z,9.9
2018-09-16T01:24:10.297Z,9.8
2018-09-16T01:25:12.388Z,9.8
2018-09-16T01:26:14.469Z,9.8
2018-09-16T01:27:16.959Z,9.8
2018-09-16T01:28:19.060Z,9.7
2018-09-16T01:29:21.531Z,9.7
2018-09-16T01:30:23.628Z,9.7
2018-09-16T01:31:25.725Z,9.7
2018-09-16T01:32:27.815Z,9.7
2018-09-16T01:33:29.927Z,9.6
2018-09-16T01:34:32.312Z,9.7
2018-09-16T01:35:35.010Z,9.6
2018-09-16T01:36:37.088Z,9.6
2018-09-16T01:37:39.197Z,9.6
2018-09-16T01:38:41.281Z,9.6
2018-09-16T01:39:43.382Z,9.6
2018-09-16T01:40:45.876Z,9.6
2018-09-16T01:41:47.961Z,9.6
2018-09-16T01:42:50.067Z,9.6
2018-09-16T01:43:52.162Z,9.6
2018-09-16T01:44:54.575Z,9.6
2018-09-16T01:45:56.661Z,9.6
2018-09-16T01:46:58.762Z,9.6
2018-09-16T01:48:00.846Z,9.6
2018-09-16T01:49:02.931Z,9.5
2018-09-16T01:50:05.042Z,9.6
2018-09-16T01:51:07.507Z,9.6
2018-09-16T01:52:10.282Z,9.6
2018-09-16T01:53:12.377Z,9.5
2018-09-16T01:54:14.472Z,9.5
2018-09-16T01:55:16.858Z,9.5
2018-09-16T01:56:18.949Z,9.5
2018-09-16T01:57:21.037Z,9.6
2018-09-16T01:58:23.531Z,9.5
2018-09-16T01:59:25.636Z,9.5
2018-09-16T02:00:27.730Z,9.6
2018-09-16T02:01:29.814Z,9.5
2018-09-16T02:02:31.924Z,9.5
2018-09-16T02:03:34.018Z,9.5
2018-09-16T02:04:36.110Z,9.5
2018-09-16T02:05:38.209Z,9.5
2018-09-16T02:06:40.287Z,9.5
2018-09-16T02:07:42.383Z,9.5
2018-09-16T02:08:44.473Z,9.4
2018-09-16T02:09:46.577Z,9.4
2018-09-16T02:10:49.051Z,9.4
2018-09-16T02:11:51.164Z,9.4
2018-09-16T02:12:53.551Z,9.4
2018-09-16T02:13:55.930Z,9.4
2018-09-16T02:14:58.043Z,9.4
2018-09-16T02:16:00.122Z,9.4
2018-09-16T02:17:02.214Z,9.4
2018-09-16T02:18:04.609Z,9.4
2018-09-16T02:19:06.714Z,9.4
2018-09-16T02:20:08.797Z,9.4
2018-09-16T02:21:10.887Z,9.4
2018-09-16T02:22:12.988Z,9.4
2018-09-16T02:23:15.063Z,9.5
2018-09-16T02:24:17.167Z,9.4
2018-09-16T02:25:19.255Z,9.4
2018-09-16T02:26:21.335Z,9.4
2018-09-16T02:27:23.423Z,9.4
2018-09-16T02:28:25.527Z,9.4
2018-09-16T02:29:27.913Z,9.4
2018-09-16T02:30:29.998Z,9.4
2018-09-16T02:31:32.090Z,9.5
2018-09-16T02:32:34.191Z,9.4
2018-09-16T02:33:36.280Z,9.4
2018-09-16T02:34:38.369Z,9.4
2018-09-16T02:35:40.487Z,9.4
2018-09-16T02:36:42.573Z,9.4
2018-09-16T02:37:44.949Z,9.4
2018-09-16T02:38:47.441Z,9.4
2018-09-16T02:39:49.519Z,9.4
2018-09-16T02:40:51.617Z,9.4
2018-09-16T02:41:54.106Z,9.6
2018-09-16T02:42:56.206Z,9.4
2018-09-16T02:43:58.864Z,9.4
2018-09-16T02:45:00.966Z,9.4
2018-09-16T02:46:03.068Z,9.3
2018-09-16T02:47:05.444Z,9.4
2018-09-16T02:48:07.549Z,9.4
2018-09-16T02:49:09.919Z,9.4
2018-09-16T02:50:12.405Z,9.4
2018-09-16T02:51:14.500Z,9.4
2018-09-16T02:52:16.606Z,9.5
2018-09-16T02:53:18.688Z,9.4
2018-09-16T02:54:20.784Z,9.5
2018-09-16T02:55:22.879Z,9.4
2018-09-16T02:56:24.952Z,9.5
2018-09-16T02:57:27.356Z,9.5
2018-09-16T02:58:29.449Z,9.5
2018-09-16T02:59:31.532Z,9.5
2018-09-16T03:00:33.684Z,9.5
2018-09-16T03:01:35.729Z,9.5
2018-09-16T03:02:37.813Z,9.4
2018-09-16T03:03:40.499Z,9.5
2018-09-16T03:04:42.595Z,9.5
2018-09-16T03:05:45.101Z,9.6
2018-09-16T03:06:47.192Z,9.6
2018-09-16T03:07:49.289Z,9.6
2018-09-16T03:08:51.761Z,9.6
2018-09-16T03:09:53.856Z,9.6
2018-09-16T03:10:55.954Z,9.6
2018-09-16T03:11:58.046Z,9.7
2018-09-16T03:13:00.460Z,9.7
2018-09-16T03:14:02.835Z,9.6
2018-09-16T03:15:04.926Z,9.7
2018-09-16T03:16:07.013Z,9.7
2018-09-16T03:17:09.129Z,9.7
2018-09-16T03:18:11.209Z,9.6
2018-09-16T03:19:13.302Z,9.6
2018-09-16T03:20:15.406Z,9.6
2018-09-16T03:21:17.485Z,9.7
2018-09-16T03:22:19.595Z,9.8
2018-09-16T03:23:21.683Z,9.6
2018-09-16T03:24:23.782Z,9.6
2018-09-16T03:25:25.864Z,9.7
2018-09-16T03:26:27.964Z,9.7
2018-09-16T03:27:30.050Z,9.8
2018-09-16T03:28:32.436Z,9.8
2018-09-16T03:29:34.550Z,9.8
2018-09-16T03:30:37.348Z,9.8
2018-09-16T03:31:39.734Z,9.9
2018-09-16T03:32:42.125Z,9.9
2018-09-16T03:33:44.219Z,9.8
2018-09-16T03:34:46.292Z,9.7
2018-09-16T03:35:48.386Z,9.7
2018-09-16T03:36:50.791Z,9.6
2018-09-16T03:37:53.850Z,9.7
2018-09-16T03:38:55.955Z,9.7
2018-09-16T03:39:58.056Z,9.7
2018-09-16T03:41:00.136Z,9.7
2018-09-16T03:42:02.530Z,9.8
2018-09-16T03:43:04.620Z,9.7
2018-09-16T03:44:07.036Z,9.8
2018-09-16T03:45:09.123Z,9.8
2018-09-16T03:46:11.229Z,9.9
2018-09-16T03:47:13.316Z,9.9
2018-09-16T03:48:15.409Z,9.8
2018-09-16T03:49:17.492Z,9.7
2018-09-16T03:50:19.597Z,9.8
2018-09-16T03:51:22.072Z,9.8
2018-09-16T03:52:24.174Z,9.8
2018-09-16T03:53:26.866Z,9.8
2018-09-16T03:54:28.947Z,9.7
2018-09-16T03:55:31.046Z,9.9
2018-09-16T03:56:33.426Z,9.9
2018-09-16T03:57:35.527Z,9.9
2018-09-16T03:58:37.899Z,9.8
2018-09-16T03:59:40.004Z,9.9
2018-09-16T04:00:42.089Z,9.9
2018-09-16T04:01:44.184Z,9.9
2018-09-16T04:02:46.297Z,9.9
2018-09-16T04:03:48.683Z,9.8
2018-09-16T04:04:50.762Z,9.9
2018-09-16T04:05:52.866Z,9.8
2018-09-16T04:06:54.962Z,9.9
2018-09-16T04:07:57.042Z,9.9
2018-09-16T04:08:59.137Z,9.8
2018-09-16T04:10:01.221Z,9.7
2018-09-16T04:11:03.320Z,9.7
2018-09-16T04:12:05.421Z,9.8
2018-09-16T04:13:07.512Z,9.8
2018-09-16T04:14:09.983Z,9.8
2018-09-16T04:15:12.092Z,9.8
2018-09-16T04:16:15.153Z,9.8
2018-09-16T04:17:17.535Z,9.9
2018-09-16T04:18:19.637Z,9.8
2018-09-16T04:19:21.711Z,9.8
2018-09-16T04:20:23.811Z,9.8
2018-09-16T04:21:25.905Z,9.8
2018-09-16T04:22:28.005Z,9.9
2018-09-16T04:23:30.096Z,9.9
2018-09-16T04:24:32.570Z,9.9
2018-09-16T04:25:35.240Z,9.9
2018-09-16T04:26:37.341Z,9.9
2018-09-16T04:27:40.253Z,9.9
2018-09-16T04:28:42.738Z,9.9
2018-09-16T04:29:44.826Z,9.9
2018-09-16T04:30:46.920Z,9.9
2018-09-16T04:31:48.997Z,9.9
2018-09-16T04:32:51.776Z,9.9
2018-09-16T04:33:54.152Z,9.8
2018-09-16T04:34:56.549Z,9.8
2018-09-16T04:35:58.659Z,9.8
2018-09-16T04:37:00.743Z,9.8
2018-09-16T04:38:03.219Z,9.8
2018-09-16T04:39:05.327Z,9.8
2018-09-16T04:40:07.421Z,9.8
2018-09-16T04:41:09.793Z,9.8
2018-09-16T04:42:11.892Z,9.8
2018-09-16T04:43:14.266Z,9.7
2018-09-16T04:44:16.357Z,9.7
2018-09-16T04:45:18.453Z,9.7
2018-09-16T04:46:20.543Z,9.7
2018-09-16T04:47:22.632Z,9.6
2018-09-16T04:48:24.743Z,9.6
2018-09-16T04:49:27.219Z,9.6
2018-09-16T04:50:29.918Z,9.6
2018-09-16T04:51:32.015Z,9.6
2018-09-16T04:52:34.094Z,9.6
2018-09-16T04:53:36.188Z,9.5
2018-09-16T04:54:38.286Z,9.5
2018-09-16T04:55:40.693Z,9.5
2018-09-16T04:56:42.772Z,9.5
2018-09-16T04:57:44.878Z,9.4
2018-09-16T04:58:46.968Z,9.4
2018-09-16T04:59:49.053Z,9.4
2018-09-16T05:00:51.146Z,9.5
2018-09-16T05:01:53.569Z,9.4
2018-09-16T05:02:55.663Z,9.4
2018-09-16T05:03:58.153Z,9.4
2018-09-16T05:05:00.236Z,9.4
2018-09-16T05:06:02.728Z,9.3
2018-09-16T05:07:04.817Z,9.4
2018-09-16T05:08:06.900Z,9.3
2018-09-16T05:09:09.006Z,9.4
2018-09-16T05:10:11.096Z,9.4
2018-09-16T05:11:13.192Z,9.4
2018-09-16T05:12:15.286Z,9.4
2018-09-16T05:13:17.378Z,9.4
2018-09-16T05:14:19.846Z,9.3
2018-09-16T05:15:21.939Z,9.4
2018-09-16T05:16:24.032Z,9.4
2018-09-16T05:17:26.125Z,9.4
2018-09-16T05:18:28.229Z,9.4
2018-09-16T05:19:30.318Z,9.4
2018-09-16T05:20:32.404Z,9.5
2018-09-16T05:21:34.898Z,9.5
2018-09-16T05:22:37.048Z,9.5
2018-09-16T05:23:39.073Z,9.5
2018-09-16T05:24:41.224Z,9.6
2018-09-16T05:25:43.305Z,9.6
2018-09-16T05:26:45.406Z,9.6
2018-09-16T05:27:47.509Z,9.7
2018-09-16T05:28:50.287Z,9.7
2018-09-16T05:29:52.370Z,9.7
2018-09-16T05:30:54.471Z,9.6
2018-09-16T05:31:56.572Z,9.6
2018-09-16T05:32:58.655Z,9.6
2018-09-16T05:34:00.765Z,9.7
2018-09-16T05:35:03.525Z,9.7
2018-09-16T05:36:05.902Z,9.7
2018-09-16T05:37:07.991Z,9.8
2018-09-16T05:38:11.088Z,9.8
2018-09-16T05:39:13.169Z,9.8
2018-09-16T05:40:15.263Z,9.8
2018-09-16T05:41:17.363Z,9.8
2018-09-16T05:42:19.449Z,9.8
2018-09-16T05:43:21.986Z,9.8
2018-09-16T05:44:24.005Z,9.8
2018-09-16T05:45:26.091Z,9.8
2018-09-16T05:46:28.186Z,9.8
2018-09-16T05:47:31.353Z,9.9
2018-09-16T05:48:33.445Z,10
2018-09-16T05:49:36.241Z,9.9
2018-09-16T05:50:38.337Z,10
2018-09-16T05:51:40.805Z,10
2018-09-16T05:52:42.960Z,10.1
2018-09-16T05:53:45.001Z,10.1
2018-09-16T05:54:47.378Z,10.1
2018-09-16T05:55:49.476Z,10.1
2018-09-16T05:56:51.577Z,10.2
2018-09-16T05:57:53.667Z,10.2
2018-09-16T05:58:55.771Z,10.3
2018-09-16T05:59:57.864Z,10.3
2018-09-16T06:00:59.955Z,10.4
2018-09-16T06:02:02.038Z,10.4
2018-09-16T06:03:04.144Z,10.4
2018-09-16T06:04:06.234Z,10.4
2018-09-16T06:05:08.412Z,10.5
2018-09-16T06:06:10.428Z,10.5
2018-09-16T06:07:12.810Z,10.5
2018-09-16T06:08:14.919Z,10.6
2018-09-16T06:09:17.019Z,10.6
2018-09-16T06:10:19.121Z,10.6
2018-09-16T06:11:21.198Z,10.6
2018-09-16T06:12:23.303Z,10.6
2018-09-16T06:13:25.394Z,10.7
2018-09-16T06:14:27.487Z,10.7
2018-09-16T06:15:29.598Z,10.7
2018-09-16T06:16:31.686Z,10.7
2018-09-16T06:17:34.066Z,10.8
2018-09-16T06:18:36.155Z,10.8
2018-09-16T06:19:38.258Z,10.8
2018-09-16T06:20:40.366Z,10.8
2018-09-16T06:21:42.457Z,10.8
2018-09-16T06:22:44.617Z,10.9
2018-09-16T06:23:47.049Z,10.9
2018-09-16T06:24:49.440Z,10.9
2018-09-16T06:25:51.921Z,10.9
2018-09-16T06:26:54.033Z,10.9
2018-09-16T06:27:56.114Z,10.9
2018-09-16T06:28:58.210Z,10.9
2018-09-16T06:30:00.602Z,11
2018-09-16T06:31:02.696Z,11
2018-09-16T06:32:05.088Z,11
2018-09-16T06:33:07.181Z,11.1
2018-09-16T06:34:09.274Z,11.1
2018-09-16T06:35:11.362Z,11.1
2018-09-16T06:36:13.473Z,11.2
2018-09-16T06:37:15.557Z,11.2
2018-09-16T06:38:17.962Z,11.3
2018-09-16T06:39:20.346Z,11.3
2018-09-16T06:40:22.434Z,11.4
2018-09-16T06:41:24.900Z,11.4
2018-09-16T06:42:27.311Z,11.4
2018-09-16T06:43:29.422Z,11.5
2018-09-16T06:44:31.781Z,11.5
2018-09-16T06:45:34.181Z,11.5
2018-09-16T06:46:36.264Z,11.6
2018-09-16T06:47:38.355Z,11.6
2018-09-16T06:48:40.461Z,11.6
2018-09-16T06:49:43.122Z,11.7
2018-09-16T06:50:45.228Z,11.8
2018-09-16T06:51:47.319Z,11.8
2018-09-16T06:52:49.416Z,11.8
2018-09-16T06:53:51.505Z,11.9
2018-09-16T06:54:53.601Z,12
2018-09-16T06:55:55.989Z,12
2018-09-16T06:56:58.083Z,12.1
2018-09-16T06:58:00.174Z,12.2
2018-09-16T06:59:02.578Z,12.3
2018-09-16T07:00:04.686Z,12.3
2018-09-16T07:01:06.779Z,12.4
2018-09-16T07:02:08.878Z,12.4
2018-09-16T07:03:10.981Z,12.5
2018-09-16T07:04:13.072Z,12.6
2018-09-16T07:05:15.200Z,12.6
2018-09-16T07:06:17.295Z,12.7
2018-09-16T07:07:19.392Z,12.7
2018-09-16T07:08:21.511Z,12.8
2018-09-16T07:09:23.593Z,12.9
2018-09-16T07:10:25.965Z,12.9
2018-09-16T07:11:28.368Z,13
2018-09-16T07:12:30.467Z,13
2018-09-16T07:13:32.552Z,13
2018-09-16T07:14:35.078Z,13.1
2018-09-16T07:15:37.034Z,13.1
2018-09-16T07:16:39.428Z,13.1
2018-09-16T07:17:41.513Z,13.1
2018-09-16T07:18:43.909Z,13.1
2018-09-16T07:19:46.002Z,13.1
2018-09-16T07:20:48.377Z,13.2
2018-09-16T07:21:50.487Z,13.2
2018-09-16T07:22:52.572Z,13.2
2018-09-16T07:23:54.667Z,13.3
2018-09-16T07:24:56.769Z,13.3
2018-09-16T07:25:58.868Z,13.4
2018-09-16T07:27:00.964Z,13.4
2018-09-16T07:28:03.452Z,13.5
2018-09-16T07:29:05.942Z,13.5
2018-09-16T07:30:08.330Z,13.5
2018-09-16T07:31:10.735Z,13.6
2018-09-16T07:32:12.833Z,13.7
2018-09-16T07:33:14.938Z,13.8
2018-09-16T07:34:17.587Z,13.8
2018-09-16T07:35:19.694Z,13.9
2018-09-16T07:36:21.792Z,13.9
2018-09-16T07:37:23.888Z,14
2018-09-16T07:38:25.999Z,14
2018-09-16T07:39:28.089Z,14.1
2018-09-16T07:40:30.193Z,14.1
2018-09-16T07:41:32.681Z,14.2
2018-09-16T07:42:34.790Z,14.3
2018-09-16T07:43:37.274Z,14.4
2018-09-16T07:44:39.376Z,14.4
2018-09-16T07:45:41.879Z,14.5
2018-09-16T07:46:43.968Z,14.6
2018-09-16T07:47:46.081Z,14.6
2018-09-16T07:48:48.202Z,14.7
2018-09-16T07:49:50.324Z,14.9
2018-09-16T07:50:52.407Z,14.9
2018-09-16T07:51:54.520Z,14.9
2018-09-16T07:52:57.119Z,15.1
2018-09-16T07:53:59.075Z,15.3
2018-09-16T07:55:01.185Z,15.4
2018-09-16T07:56:03.273Z,15.4
2018-09-16T07:57:05.376Z,15.5
2018-09-16T07:58:07.484Z,15.4
2018-09-16T07:59:09.588Z,15.5
2018-09-16T08:00:11.714Z,15.7
2018-09-16T08:01:13.833Z,15.8
2018-09-16T08:02:15.932Z,15.9
2018-09-16T08:03:18.034Z,16.1
2018-09-16T08:04:20.148Z,16.1
2018-09-16T08:05:22.659Z,16.1
2018-09-16T08:06:24.749Z,16.2
2018-09-16T08:07:27.183Z,16.4
2018-09-16T08:08:29.280Z,16.4
2018-09-16T08:09:31.380Z,16.5
2018-09-16T08:10:33.507Z,16.5
2018-09-16T08:11:35.910Z,16.6
2018-09-16T08:12:38.023Z,16.7
2018-09-16T08:13:40.607Z,16.7
2018-09-16T08:14:42.665Z,16.7
2018-09-16T08:15:44.752Z,16.9
2018-09-16T08:16:46.882Z,17.1
2018-09-16T08:17:49.011Z,17
2018-09-16T08:18:51.203Z,17.1
2018-09-16T08:19:53.329Z,17
2018-09-16T08:20:55.485Z,17.2
2018-09-16T08:21:57.544Z,17.1
2018-09-16T08:22:59.639Z,17.1
2018-09-16T08:24:01.760Z,17.2
2018-09-16T08:25:03.866Z,17.3
2018-09-16T08:26:05.974Z,17.1
2018-09-16T08:27:08.486Z,17.1
2018-09-16T08:28:10.576Z,17.4
2018-09-16T08:29:12.697Z,17.8
2018-09-16T08:30:14.804Z,17.8
2018-09-16T08:31:16.909Z,17.9
2018-09-16T08:32:19.013Z,18
2018-09-16T08:33:21.157Z,17.8
2018-09-16T08:34:23.648Z,17.6
2018-09-16T08:35:25.782Z,17.8
2018-09-16T08:36:27.896Z,17.8
2018-09-16T08:37:29.994Z,17.7
2018-09-16T08:38:32.135Z,17.9
2018-09-16T08:39:34.248Z,18
2018-09-16T08:40:36.347Z,18.1
2018-09-16T08:41:38.459Z,18.1
2018-09-16T08:42:40.640Z,18.5
2018-09-16T08:43:42.760Z,18.4
2018-09-16T08:44:44.882Z,18.3
2018-09-16T08:45:47.294Z,18.4
2018-09-16T08:46:49.439Z,18.4
2018-09-16T08:47:51.537Z,18.3
2018-09-16T08:48:53.646Z,18.2
2018-09-16T08:49:55.768Z,18.3
2018-09-16T08:50:58.163Z,18.3
2018-09-16T08:52:00.581Z,18.4
2018-09-16T08:53:02.695Z,18.6
2018-09-16T08:54:04.800Z,18.7
2018-09-16T08:55:06.911Z,18.7
2018-09-16T08:56:09.015Z,18.7
2018-09-16T08:57:11.502Z,18.5
2018-09-16T08:58:14.210Z,18.6
2018-09-16T08:59:17.087Z,18.8
2018-09-16T09:00:20.582Z,18.6
2018-09-16T09:01:22.693Z,18.9
2018-09-16T09:02:24.810Z,18.8
2018-09-16T09:03:26.917Z,18.8
2018-09-16T09:04:29.537Z,18.4
2018-09-16T09:05:32.350Z,18.6
2018-09-16T09:06:35.373Z,18.9
2018-09-16T09:07:37.480Z,19
2018-09-16T09:08:39.596Z,19
2018-09-16T09:09:42.042Z,18.9
2018-09-16T09:10:44.296Z,18.9
2018-09-16T09:11:46.404Z,19.1
2018-09-16T09:12:48.530Z,19.2
2018-09-16T09:13:50.617Z,19.1
2018-09-16T09:14:52.735Z,19.2
2018-09-16T09:15:54.846Z,18.9
2018-09-16T09:16:56.951Z,18.9
2018-09-16T09:17:59.072Z,19
2018-09-16T09:19:01.468Z,19.2
2018-09-16T09:20:03.874Z,19.4
2018-09-16T09:21:06.280Z,19.4
2018-09-16T09:22:08.698Z,19.6
2018-09-16T09:23:11.596Z,19.8
2018-09-16T09:24:13.657Z,19.7
2018-09-16T09:25:15.782Z,19.7
2018-09-16T09:26:17.889Z,19.6
2018-09-16T09:27:20.035Z,19.5
2018-09-16T09:28:22.571Z,19.5
2018-09-16T09:29:24.965Z,20
2018-09-16T09:30:27.378Z,20.1
2018-09-16T09:31:29.700Z,20
2018-09-16T09:32:31.789Z,19.8
2018-09-16T09:33:34.304Z,20
2018-09-16T09:34:36.402Z,20.1
2018-09-16T09:35:38.552Z,20.4
2018-09-16T09:36:40.945Z,20.1
2018-09-16T09:37:43.358Z,20.6
2018-09-16T09:38:45.755Z,20.6
2018-09-16T09:39:47.871Z,20.8
2018-09-16T09:40:50.296Z,20.8
2018-09-16T09:41:52.533Z,20.5
2018-09-16T09:42:54.728Z,20.3
2018-09-16T09:43:56.757Z,20.5
2018-09-16T09:44:59.193Z,20.4
2018-09-16T09:46:01.316Z,20.7
2018-09-16T09:47:03.413Z,20.6
2018-09-16T09:48:05.535Z,20.6
2018-09-16T09:49:08.641Z,21.1
2018-09-16T09:50:10.782Z,20.9
2018-09-16T09:51:13.296Z,21
2018-09-16T09:52:15.533Z,20.8
2018-09-16T09:53:18.280Z,20.9
2018-09-16T09:54:20.406Z,21
2018-09-16T09:55:22.525Z,21
2018-09-16T09:56:24.624Z,21
2018-09-16T09:57:26.749Z,20.6
2018-09-16T09:58:28.888Z,20.7
2018-09-16T09:59:30.985Z,20.7
2018-09-16T10:00:33.112Z,20.9
2018-09-16T10:01:35.835Z,21
2018-09-16T10:02:38.319Z,21
2018-09-16T10:03:40.410Z,21
2018-09-16T10:04:42.523Z,21
2018-09-16T10:05:44.644Z,20.8
2018-09-16T10:06:46.808Z,20.8
2018-09-16T10:07:49.197Z,21.3
2018-09-16T10:08:51.321Z,21.3
2018-09-16T10:09:53.467Z,21.3
2018-09-16T10:10:56.333Z,21.7
2018-09-16T10:11:58.444Z,21.8
2018-09-16T10:13:00.568Z,21.4
2018-09-16T10:14:02.675Z,21.4
2018-09-16T10:15:05.277Z,21.8
2018-09-16T10:16:07.483Z,22
2018-09-16T10:17:09.583Z,22.1
2018-09-16T10:18:11.991Z,22.4
2018-09-16T10:19:14.422Z,22.1
2018-09-16T10:20:16.519Z,22.2
2018-09-16T10:21:18.637Z,22.3
2018-09-16T10:22:20.759Z,22.3
2018-09-16T10:23:22.857Z,22
2018-09-16T10:24:26.081Z,22.1
2018-09-16T10:25:28.485Z,22
2018-09-16T10:26:30.592Z,22.4
2018-09-16T10:27:32.694Z,22.6
2018-09-16T10:28:34.903Z,22.2
2018-09-16T10:29:37.005Z,22.3
2018-09-16T10:30:39.407Z,22.4
2018-09-16T10:31:41.832Z,22.3
2018-09-16T10:32:44.034Z,22.3
2018-09-16T10:33:46.840Z,22
2018-09-16T10:34:49.253Z,22.2
2018-09-16T10:35:51.724Z,22.3
2018-09-16T10:36:53.979Z,22.1
2018-09-16T10:37:56.105Z,22.4
2018-09-16T10:38:58.334Z,22.1
2018-09-16T10:40:00.323Z,22.4
2018-09-16T10:41:02.445Z,22.6
2018-09-16T10:42:04.548Z,22.7
2018-09-16T10:43:06.658Z,22.8
2018-09-16T10:44:08.782Z,22.6
2018-09-16T10:45:10.902Z,22.6
2018-09-16T10:46:13.441Z,22.5
2018-09-16T10:47:15.556Z,22
2018-09-16T10:48:17.708Z,22.4
2018-09-16T10:49:20.233Z,22.4
2018-09-16T10:50:22.518Z,22.8
2018-09-16T10:51:24.644Z,22.9
2018-09-16T10:52:26.744Z,22.7
2018-09-16T10:53:28.874Z,22.9
2018-09-16T10:54:30.994Z,23
2018-09-16T10:55:33.100Z,22.9
2018-09-16T10:56:35.226Z,22.9
2018-09-16T10:57:37.613Z,22.9
2018-09-16T10:58:39.735Z,22.7
2018-09-16T10:59:41.995Z,22.7
2018-09-16T11:00:44.122Z,22.8
2018-09-16T11:01:46.219Z,22.8
2018-09-16T11:02:48.347Z,23
2018-09-16T11:03:50.877Z,23.2
2018-09-16T11:04:53.298Z,23.1
2018-09-16T11:05:55.428Z,22.8
2018-09-16T11:06:57.535Z,22.9
2018-09-16T11:07:59.742Z,23.5
2018-09-16T11:09:02.252Z,23.1
2018-09-16T11:10:04.381Z,23.3
2018-09-16T11:11:06.791Z,23
2018-09-16T11:12:09.195Z,23.3
2018-09-16T11:13:11.316Z,23.5
2018-09-16T11:14:13.418Z,23.3
2018-09-16T11:15:15.543Z,23.5
2018-09-16T11:16:17.971Z,23.4
2018-09-16T11:17:20.489Z,23.1
2018-09-16T11:18:23.001Z,23.4
2018-09-16T11:19:25.127Z,23.3
2018-09-16T11:20:27.815Z,23.3
2018-09-16T11:21:30.045Z,23.4
2018-09-16T11:22:32.547Z,23.3
2018-09-16T11:23:34.673Z,23.5
2018-09-16T11:24:36.794Z,23.4
2018-09-16T11:25:39.060Z,23.3
2018-09-16T11:26:41.187Z,22.9
2018-09-16T11:27:43.587Z,23.2
2018-09-16T11:28:46.322Z,23.6
2018-09-16T11:29:48.861Z,24
2018-09-16T11:30:50.970Z,23.7
2018-09-16T11:31:53.387Z,23.6
2018-09-16T11:32:55.789Z,23.7
2018-09-16T11:33:57.910Z,23.5
2018-09-16T11:35:00.026Z,23.3
2018-09-16T11:36:02.151Z,23.8
2018-09-16T11:37:04.262Z,23.6
2018-09-16T11:38:06.382Z,24
2018-09-16T11:39:08.820Z,23.8
2018-09-16T11:40:10.921Z,23.9
2018-09-16T11:41:13.039Z,23.9
2018-09-16T11:42:15.150Z,24.2
2018-09-16T11:43:17.393Z,23.8
2018-09-16T11:44:19.790Z,24.1
2018-09-16T11:45:21.911Z,23.9
2018-09-16T11:46:24.040Z,23.5
2018-09-16T11:47:26.143Z,23.9
2018-09-16T11:48:28.271Z,24
2018-09-16T11:49:30.382Z,24
2018-09-16T11:50:32.488Z,24.2
2018-09-16T11:51:35.459Z,24.3
2018-09-16T11:52:37.963Z,24.1
2018-09-16T11:53:40.072Z,23.8
2018-09-16T11:54:42.191Z,23.9
2018-09-16T11:55:44.306Z,24.2
2018-09-16T11:56:46.549Z,24
2018-09-16T11:57:48.666Z,24.1
2018-09-16T11:58:50.778Z,23.9
2018-09-16T11:59:52.910Z,23.9
2018-09-16T12:00:55.018Z,23.8
2018-09-16T12:01:57.609Z,23.7
2018-09-16T12:02:59.706Z,23.8
2018-09-16T12:04:01.803Z,23.7
2018-09-16T12:05:03.921Z,23.6
2018-09-16T12:06:06.034Z,23.5
2018-09-16T12:07:08.161Z,23.9
2018-09-16T12:08:10.258Z,23.8
2018-09-16T12:09:12.422Z,24
2018-09-16T12:10:14.981Z,23.9
2018-09-16T12:11:17.094Z,23.9
2018-09-16T12:12:19.224Z,24.1
2018-09-16T12:13:21.611Z,24.4
2018-09-16T12:14:23.751Z,23.8
2018-09-16T12:15:25.978Z,24.1
2018-09-16T12:16:28.109Z,24
2018-09-16T12:17:30.219Z,24.2
2018-09-16T12:18:32.334Z,24.4
2018-09-16T12:19:34.454Z,23.4
2018-09-16T12:20:36.948Z,23.7
2018-09-16T12:21:39.745Z,23.7
2018-09-16T12:22:41.862Z,24.1
2018-09-16T12:23:43.973Z,23.9
2018-09-16T12:24:46.090Z,23.9
2018-09-16T12:25:48.214Z,23.9
2018-09-16T12:26:50.321Z,23.9
2018-09-16T12:27:52.728Z,23.8
2018-09-16T12:28:55.148Z,23.6
2018-09-16T12:29:57.260Z,23.6
2018-09-16T12:30:59.830Z,23.8
2018-09-16T12:32:02.321Z,23.6
2018-09-16T12:33:04.812Z,23.9
2018-09-16T12:34:06.934Z,23.9
2018-09-16T12:35:09.335Z,24
2018-09-16T12:36:11.457Z,24
2018-09-16T12:37:13.570Z,23.9
2018-09-16T12:38:15.678Z,23.7
2018-09-16T12:39:18.464Z,24
2018-09-16T12:40:20.873Z,24.1
2018-09-16T12:41:23.259Z,23.9
2018-09-16T12:42:25.386Z,23.9
2018-09-16T12:43:27.494Z,23.7
2018-09-16T12:44:29.600Z,23.6
2018-09-16T12:45:31.730Z,23.9
2018-09-16T12:46:33.830Z,23.6
2018-09-16T12:47:35.941Z,23.7
2018-09-16T12:48:38.050Z,23.6
2018-09-16T12:49:40.176Z,23.6
2018-09-16T12:50:42.279Z,23.3
2018-09-16T12:51:44.418Z,23.4
2018-09-16T12:52:46.847Z,23.5
2018-09-16T12:53:48.947Z,23.5
2018-09-16T12:54:51.078Z,23.5
2018-09-16T12:55:53.182Z,23.4
2018-09-16T12:56:55.342Z,23.4
2018-09-16T12:57:57.401Z,23.2
2018-09-16T12:58:59.526Z,22.9
2018-09-16T13:00:02.320Z,23.1
2018-09-16T13:01:04.431Z,23.2
2018-09-16T13:02:06.544Z,23.1
2018-09-16T13:03:08.648Z,23
2018-09-16T13:04:10.761Z,23.2
2018-09-16T13:05:12.883Z,23.2
2018-09-16T13:06:15.059Z,23
2018-09-16T13:07:17.178Z,23
2018-09-16T13:08:19.305Z,23
2018-09-16T13:09:21.694Z,23.1
2018-09-16T13:10:24.133Z,23.1
2018-09-16T13:11:26.241Z,22.8
2018-09-16T13:12:28.372Z,23.1
2018-09-16T13:13:30.476Z,22.8
2018-09-16T13:14:32.599Z,22.7
2018-09-16T13:15:35.098Z,22.9
2018-09-16T13:16:37.209Z,23
2018-09-16T13:17:39.329Z,22.9
2018-09-16T13:18:41.720Z,22.8
2018-09-16T13:19:44.244Z,22.7
2018-09-16T13:20:46.645Z,22.7
2018-09-16T13:21:48.809Z,22.7
2018-09-16T13:22:50.906Z,22.6
2018-09-16T13:23:53.028Z,22.7
2018-09-16T13:24:55.139Z,22.8
2018-09-16T13:25:57.250Z,22.9
2018-09-16T13:26:59.373Z,23
2018-09-16T13:28:01.771Z,23.2
2018-09-16T13:29:03.883Z,23.2
2018-09-16T13:30:06.293Z,22.9
2018-09-16T13:31:08.405Z,22.7
2018-09-16T13:32:10.503Z,22.8
2018-09-16T13:33:12.622Z,22.7
2018-09-16T13:34:14.721Z,22.7
2018-09-16T13:35:17.120Z,22.8
2018-09-16T13:36:19.246Z,22.9
2018-09-16T13:37:21.663Z,22.9
2018-09-16T13:38:24.168Z,23.2
2018-09-16T13:39:26.294Z,23.1
2018-09-16T13:40:28.404Z,23.1
2018-09-16T13:41:30.507Z,22.8
2018-09-16T13:42:33.016Z,22.7
2018-09-16T13:43:35.116Z,22.8
2018-09-16T13:44:37.240Z,22.9
2018-09-16T13:45:39.655Z,22.6
2018-09-16T13:46:41.774Z,22.6
2018-09-16T13:47:43.882Z,22.5
2018-09-16T13:48:46.290Z,22.5
2018-09-16T13:49:48.400Z,22.6
2018-09-16T13:50:50.512Z,22.8
2018-09-16T13:51:52.623Z,22.5
2018-09-16T13:52:54.744Z,22.8
2018-09-16T13:53:56.855Z,22.7
2018-09-16T13:54:58.973Z,22.5
2018-09-16T13:56:02.059Z,22.5
2018-09-16T13:57:04.492Z,22.4
2018-09-16T13:58:06.614Z,22.3
2018-09-16T13:59:08.714Z,22.3
2018-09-16T14:00:10.837Z,22.4
2018-09-16T14:01:13.327Z,22.1
2018-09-16T14:02:15.829Z,22.4
2018-09-16T14:03:17.946Z,22.4